sensor_id;sensor_type;location;lat;lon;timestamp;P1;durP1;ratioP1;P2;durP2;ratioP2
69951;SDS011;60406;48.408;13.392;2023-11-19T00:00:04;18.73;;;14.35;;
69951;SDS011;60406;48.408;13.392;2023-11-19T00:05:06;18.67;;;13.60;;
69951;SDS011;60406;48.408;13.392;2023-11-19T00:10:10;15.90;;;12.50;;
69951;SDS011;60406;48.408;13.392;2023-11-19T00:15:12;17.25;;;13.43;;
69951;SDS011;60406;48.408;13.392;2023-11-19T00:20:14;19.88;;;14.52;;
69951;SDS011;60406;48.408;13.392;2023-11-19T00:25:15;20.33;;;15.13;;
69951;SDS011;60406;48.408;13.392;2023-11-19T00:30:16;22.10;;;16.33;;
69951;SDS011;60406;48.408;13.392;2023-11-19T00:35:17;21.67;;;15.52;;
69951;SDS011;60406;48.408;13.392;2023-11-19T00:40:18;20.52;;;15.82;;
69951;SDS011;60406;48.408;13.392;2023-11-19T00:45:19;24.42;;;15.50;;
69951;SDS011;60406;48.408;13.392;2023-11-19T00:50:20;22.77;;;16.85;;
69951;SDS011;60406;48.408;13.392;2023-11-19T00:55:21;19.63;;;15.02;;
69951;SDS011;60406;48.408;13.392;2023-11-19T01:00:21;22.48;;;15.73;;
69951;SDS011;60406;48.408;13.392;2023-11-19T01:05:22;18.83;;;14.52;;
69951;SDS011;60406;48.408;13.392;2023-11-19T01:10:23;24.38;;;15.93;;
69951;SDS011;60406;48.408;13.392;2023-11-19T01:15:24;21.73;;;15.70;;
69951;SDS011;60406;48.408;13.392;2023-11-19T01:20:25;20.52;;;15.90;;
69951;SDS011;60406;48.408;13.392;2023-11-19T01:25:26;21.88;;;17.33;;
69951;SDS011;60406;48.408;13.392;2023-11-19T01:30:27;24.15;;;18.17;;
69951;SDS011;60406;48.408;13.392;2023-11-19T01:35:27;23.40;;;18.20;;
69951;SDS011;60406;48.408;13.392;2023-11-19T01:40:28;26.15;;;19.92;;
69951;SDS011;60406;48.408;13.392;2023-11-19T01:45:30;26.23;;;19.60;;
69951;SDS011;60406;48.408;13.392;2023-11-19T01:50:31;25.60;;;19.60;;
69951;SDS011;60406;48.408;13.392;2023-11-19T01:55:32;30.50;;;20.77;;
69951;SDS011;60406;48.408;13.392;2023-11-19T02:00:33;28.20;;;20.17;;
69951;SDS011;60406;48.408;13.392;2023-11-19T02:05:34;29.08;;;20.65;;
69951;SDS011;60406;48.408;13.392;2023-11-19T02:10:35;24.67;;;19.58;;
69951;SDS011;60406;48.408;13.392;2023-11-19T02:15:36;26.27;;;19.65;;
69951;SDS011;60406;48.408;13.392;2023-11-19T02:20:37;26.35;;;20.02;;
69951;SDS011;60406;48.408;13.392;2023-11-19T02:25:38;25.60;;;19.15;;
69951;SDS011;60406;48.408;13.392;2023-11-19T02:30:40;24.42;;;19.48;;
69951;SDS011;60406;48.408;13.392;2023-11-19T02:35:41;23.55;;;20.10;;
69951;SDS011;60406;48.408;13.392;2023-11-19T02:40:41;27.55;;;20.98;;
69951;SDS011;60406;48.408;13.392;2023-11-19T02:45:42;24.02;;;18.95;;
69951;SDS011;60406;48.408;13.392;2023-11-19T02:50:43;23.02;;;19.30;;
69951;SDS011;60406;48.408;13.392;2023-11-19T02:55:44;24.40;;;17.75;;
69951;SDS011;60406;48.408;13.392;2023-11-19T03:00:45;18.10;;;15.57;;
69951;SDS011;60406;48.408;13.392;2023-11-19T03:05:46;19.33;;;14.57;;
69951;SDS011;60406;48.408;13.392;2023-11-19T03:10:47;16.85;;;14.60;;
69951;SDS011;60406;48.408;13.392;2023-11-19T03:15:48;16.63;;;13.82;;
69951;SDS011;60406;48.408;13.392;2023-11-19T03:20:49;16.83;;;14.30;;
69951;SDS011;60406;48.408;13.392;2023-11-19T03:25:50;18.27;;;12.00;;
69951;SDS011;60406;48.408;13.392;2023-11-19T03:30:50;14.50;;;12.63;;
69951;SDS011;60406;48.408;13.392;2023-11-19T03:35:51;15.15;;;12.98;;
69951;SDS011;60406;48.408;13.392;2023-11-19T03:40:52;16.70;;;13.85;;
69951;SDS011;60406;48.408;13.392;2023-11-19T03:45:53;14.07;;;12.13;;
69951;SDS011;60406;48.408;13.392;2023-11-19T03:50:54;14.27;;;12.50;;
69951;SDS011;60406;48.408;13.392;2023-11-19T03:55:55;15.52;;;12.63;;
69951;SDS011;60406;48.408;13.392;2023-11-19T04:00:56;15.27;;;13.60;;
69951;SDS011;60406;48.408;13.392;2023-11-19T04:05:57;13.85;;;12.35;;
69951;SDS011;60406;48.408;13.392;2023-11-19T04:10:57;13.38;;;11.98;;
69951;SDS011;60406;48.408;13.392;2023-11-19T04:15:58;15.13;;;12.82;;
69951;SDS011;60406;48.408;13.392;2023-11-19T04:20:59;13.07;;;10.90;;
69951;SDS011;60406;48.408;13.392;2023-11-19T04:26:03;12.95;;;11.45;;
69951;SDS011;60406;48.408;13.392;2023-11-19T04:36:05;12.45;;;11.13;;
69951;SDS011;60406;48.408;13.392;2023-11-19T04:41:06;13.20;;;11.10;;
69951;SDS011;60406;48.408;13.392;2023-11-19T04:46:09;12.07;;;10.52;;
69951;SDS011;60406;48.408;13.392;2023-11-19T04:51:10;13.50;;;11.13;;
69951;SDS011;60406;48.408;13.392;2023-11-19T04:56:11;12.50;;;10.80;;
69951;SDS011;60406;48.408;13.392;2023-11-19T05:01:15;15.32;;;12.00;;
69951;SDS011;60406;48.408;13.392;2023-11-19T05:06:15;12.32;;;10.95;;
69951;SDS011;60406;48.408;13.392;2023-11-19T05:11:16;11.68;;;9.85;;
69951;SDS011;60406;48.408;13.392;2023-11-19T05:16:17;13.00;;;11.02;;
69951;SDS011;60406;48.408;13.392;2023-11-19T05:21:18;11.95;;;9.82;;
69951;SDS011;60406;48.408;13.392;2023-11-19T05:26:19;12.98;;;10.93;;
69951;SDS011;60406;48.408;13.392;2023-11-19T05:31:21;12.85;;;10.48;;
69951;SDS011;60406;48.408;13.392;2023-11-19T05:36:21;12.77;;;10.45;;
69951;SDS011;60406;48.408;13.392;2023-11-19T05:41:22;13.60;;;10.98;;
69951;SDS011;60406;48.408;13.392;2023-11-19T05:46:23;12.65;;;10.88;;
69951;SDS011;60406;48.408;13.392;2023-11-19T05:51:24;13.90;;;10.93;;
69951;SDS011;60406;48.408;13.392;2023-11-19T05:56:25;13.57;;;11.05;;
69951;SDS011;60406;48.408;13.392;2023-11-19T06:01:26;12.50;;;10.38;;
69951;SDS011;60406;48.408;13.392;2023-11-19T06:06:27;27.38;;;17.55;;
69951;SDS011;60406;48.408;13.392;2023-11-19T06:11:28;14.85;;;12.90;;
69951;SDS011;60406;48.408;13.392;2023-11-19T06:16:29;17.13;;;14.90;;
69951;SDS011;60406;48.408;13.392;2023-11-19T06:21:30;22.90;;;17.40;;
69951;SDS011;60406;48.408;13.392;2023-11-19T06:26:31;11.80;;;10.18;;
69951;SDS011;60406;48.408;13.392;2023-11-19T06:31:32;15.75;;;11.60;;
69951;SDS011;60406;48.408;13.392;2023-11-19T06:36:33;12.35;;;10.63;;
69951;SDS011;60406;48.408;13.392;2023-11-19T06:41:34;10.90;;;9.40;;
69951;SDS011;60406;48.408;13.392;2023-11-19T06:46:34;10.95;;;9.23;;
69951;SDS011;60406;48.408;13.392;2023-11-19T06:51:35;10.80;;;9.27;;
69951;SDS011;60406;48.408;13.392;2023-11-19T06:56:36;10.60;;;8.25;;
69951;SDS011;60406;48.408;13.392;2023-11-19T07:01:37;10.65;;;9.05;;
69951;SDS011;60406;48.408;13.392;2023-11-19T07:06:38;12.05;;;9.73;;
69951;SDS011;60406;48.408;13.392;2023-11-19T07:11:39;11.23;;;9.73;;
69951;SDS011;60406;48.408;13.392;2023-11-19T07:16:41;10.18;;;9.07;;
69951;SDS011;60406;48.408;13.392;2023-11-19T07:21:42;10.63;;;9.20;;
69951;SDS011;60406;48.408;13.392;2023-11-19T07:26:43;9.40;;;8.38;;
69951;SDS011;60406;48.408;13.392;2023-11-19T07:31:44;9.98;;;8.98;;
69951;SDS011;60406;48.408;13.392;2023-11-19T07:36:45;10.65;;;9.00;;
69951;SDS011;60406;48.408;13.392;2023-11-19T07:41:46;9.60;;;8.60;;
69951;SDS011;60406;48.408;13.392;2023-11-19T07:46:47;11.43;;;9.93;;
69951;SDS011;60406;48.408;13.392;2023-11-19T07:51:48;10.10;;;8.40;;
69951;SDS011;60406;48.408;13.392;2023-11-19T07:56:50;9.25;;;8.10;;
69951;SDS011;60406;48.408;13.392;2023-11-19T08:01:51;9.15;;;8.23;;
69951;SDS011;60406;48.408;13.392;2023-11-19T08:06:51;14.45;;;11.98;;
69951;SDS011;60406;48.408;13.392;2023-11-19T08:11:52;11.07;;;8.82;;
69951;SDS011;60406;48.408;13.392;2023-11-19T08:16:53;9.48;;;8.23;;
69951;SDS011;60406;48.408;13.392;2023-11-19T08:21:54;36.97;;;19.08;;
69951;SDS011;60406;48.408;13.392;2023-11-19T08:26:55;15.60;;;14.07;;
69951;SDS011;60406;48.408;13.392;2023-11-19T08:31:56;13.05;;;10.75;;
69951;SDS011;60406;48.408;13.392;2023-11-19T08:36:57;11.82;;;10.35;;
69951;SDS011;60406;48.408;13.392;2023-11-19T08:41:58;13.45;;;12.05;;
69951;SDS011;60406;48.408;13.392;2023-11-19T08:46:58;12.70;;;10.65;;
69951;SDS011;60406;48.408;13.392;2023-11-19T08:51:59;11.98;;;10.00;;
69951;SDS011;60406;48.408;13.392;2023-11-19T08:57:00;13.75;;;10.98;;
69951;SDS011;60406;48.408;13.392;2023-11-19T09:02:01;14.15;;;10.88;;
69951;SDS011;60406;48.408;13.392;2023-11-19T09:07:02;12.27;;;10.98;;
69951;SDS011;60406;48.408;13.392;2023-11-19T09:12:03;12.90;;;11.05;;
69951;SDS011;60406;48.408;13.392;2023-11-19T09:17:04;13.38;;;11.00;;
69951;SDS011;60406;48.408;13.392;2023-11-19T09:22:05;14.70;;;12.57;;
69951;SDS011;60406;48.408;13.392;2023-11-19T09:27:06;15.20;;;13.60;;
69951;SDS011;60406;48.408;13.392;2023-11-19T09:32:07;16.13;;;13.27;;
69951;SDS011;60406;48.408;13.392;2023-11-19T09:37:07;17.15;;;14.48;;
69951;SDS011;60406;48.408;13.392;2023-11-19T09:42:09;16.77;;;14.55;;
69951;SDS011;60406;48.408;13.392;2023-11-19T09:47:11;14.50;;;12.23;;
69951;SDS011;60406;48.408;13.392;2023-11-19T09:52:12;13.60;;;11.88;;
69951;SDS011;60406;48.408;13.392;2023-11-19T09:57:13;16.38;;;13.77;;
69951;SDS011;60406;48.408;13.392;2023-11-19T10:02:15;15.40;;;12.48;;
69951;SDS011;60406;48.408;13.392;2023-11-19T10:07:17;16.90;;;12.93;;
69951;SDS011;60406;48.408;13.392;2023-11-19T10:12:18;13.82;;;12.35;;
69951;SDS011;60406;48.408;13.392;2023-11-19T10:17:19;24.13;;;19.88;;
69951;SDS011;60406;48.408;13.392;2023-11-19T10:22:20;112.75;;;58.95;;
69951;SDS011;60406;48.408;13.392;2023-11-19T10:27:22;15.13;;;12.15;;
69951;SDS011;60406;48.408;13.392;2023-11-19T10:32:24;14.98;;;12.57;;
69951;SDS011;60406;48.408;13.392;2023-11-19T10:37:28;20.70;;;18.20;;
69951;SDS011;60406;48.408;13.392;2023-11-19T10:42:30;10.15;;;9.02;;
69951;SDS011;60406;48.408;13.392;2023-11-19T10:47:30;12.18;;;10.65;;
69951;SDS011;60406;48.408;13.392;2023-11-19T10:52:32;12.40;;;10.70;;
69951;SDS011;60406;48.408;13.392;2023-11-19T10:57:34;11.80;;;10.60;;
69951;SDS011;60406;48.408;13.392;2023-11-19T11:02:37;13.35;;;11.30;;
69951;SDS011;60406;48.408;13.392;2023-11-19T11:07:41;14.55;;;13.05;;
69951;SDS011;60406;48.408;13.392;2023-11-19T11:12:43;16.48;;;11.95;;
69951;SDS011;60406;48.408;13.392;2023-11-19T11:17:44;17.48;;;12.18;;
69951;SDS011;60406;48.408;13.392;2023-11-19T11:33:45;14.65;;;11.10;;
69951;SDS011;60406;48.408;13.392;2023-11-19T11:39:06;13.52;;;10.70;;
69951;SDS011;60406;48.408;13.392;2023-11-19T11:44:07;12.05;;;10.27;;
69951;SDS011;60406;48.408;13.392;2023-11-19T11:49:08;10.75;;;9.65;;
69951;SDS011;60406;48.408;13.392;2023-11-19T11:59:20;16.02;;;13.10;;
69951;SDS011;60406;48.408;13.392;2023-11-19T12:04:21;11.98;;;9.90;;
69951;SDS011;60406;48.408;13.392;2023-11-19T12:09:22;19.48;;;16.13;;
69951;SDS011;60406;48.408;13.392;2023-11-19T12:14:59;12.85;;;11.43;;
69951;SDS011;60406;48.408;13.392;2023-11-19T12:20:02;11.35;;;10.18;;
69951;SDS011;60406;48.408;13.392;2023-11-19T12:25:07;11.48;;;10.20;;
69951;SDS011;60406;48.408;13.392;2023-11-19T12:30:09;14.05;;;10.68;;
69951;SDS011;60406;48.408;13.392;2023-11-19T12:35:10;13.50;;;11.50;;
69951;SDS011;60406;48.408;13.392;2023-11-19T12:40:19;10.85;;;9.75;;
69951;SDS011;60406;48.408;13.392;2023-11-19T12:45:23;8.05;;;7.35;;
69951;SDS011;60406;48.408;13.392;2023-11-19T12:50:24;6.80;;;6.20;;
69951;SDS011;60406;48.408;13.392;2023-11-19T12:55:26;7.60;;;6.82;;
69951;SDS011;60406;48.408;13.392;2023-11-19T13:00:30;9.27;;;8.05;;
69951;SDS011;60406;48.408;13.392;2023-11-19T13:05:31;9.65;;;8.07;;
69951;SDS011;60406;48.408;13.392;2023-11-19T13:10:34;10.10;;;9.05;;
69951;SDS011;60406;48.408;13.392;2023-11-19T13:15:50;10.82;;;9.77;;
69951;SDS011;60406;48.408;13.392;2023-11-19T13:20:51;10.52;;;9.52;;
69951;SDS011;60406;48.408;13.392;2023-11-19T13:25:52;9.77;;;8.77;;
69951;SDS011;60406;48.408;13.392;2023-11-19T13:30:53;12.60;;;10.18;;
69951;SDS011;60406;48.408;13.392;2023-11-19T13:35:54;13.32;;;8.80;;
69951;SDS011;60406;48.408;13.392;2023-11-19T13:40:54;13.57;;;10.25;;
69951;SDS011;60406;48.408;13.392;2023-11-19T13:45:56;12.23;;;10.20;;
69951;SDS011;60406;48.408;13.392;2023-11-19T13:50:57;7.20;;;6.50;;
69951;SDS011;60406;48.408;13.392;2023-11-19T13:55:57;6.78;;;5.35;;
69951;SDS011;60406;48.408;13.392;2023-11-19T14:00:58;7.45;;;6.75;;
69951;SDS011;60406;48.408;13.392;2023-11-19T14:05:59;10.25;;;6.32;;
69951;SDS011;60406;48.408;13.392;2023-11-19T14:11:00;9.75;;;8.75;;
69951;SDS011;60406;48.408;13.392;2023-11-19T14:16:01;13.10;;;8.48;;
69951;SDS011;60406;48.408;13.392;2023-11-19T14:21:02;11.15;;;10.05;;
69951;SDS011;60406;48.408;13.392;2023-11-19T14:26:03;12.88;;;11.52;;
69951;SDS011;60406;48.408;13.392;2023-11-19T14:31:04;13.55;;;12.15;;
69951;SDS011;60406;48.408;13.392;2023-11-19T14:36:05;7.35;;;6.65;;
69951;SDS011;60406;48.408;13.392;2023-11-19T14:41:06;10.60;;;9.60;;
69951;SDS011;60406;48.408;13.392;2023-11-19T14:46:07;14.77;;;11.25;;
69951;SDS011;60406;48.408;13.392;2023-11-19T14:51:08;28.42;;;22.35;;
69951;SDS011;60406;48.408;13.392;2023-11-19T14:56:11;28.25;;;21.08;;
69951;SDS011;60406;48.408;13.392;2023-11-19T15:01:12;20.00;;;15.80;;
69951;SDS011;60406;48.408;13.392;2023-11-19T15:06:14;16.85;;;13.07;;
69951;SDS011;60406;48.408;13.392;2023-11-19T15:11:15;23.30;;;17.55;;
69951;SDS011;60406;48.408;13.392;2023-11-19T15:16:15;13.90;;;12.10;;
69951;SDS011;60406;48.408;13.392;2023-11-19T15:21:16;21.60;;;13.90;;
69951;SDS011;60406;48.408;13.392;2023-11-19T15:26:17;16.17;;;13.68;;
69951;SDS011;60406;48.408;13.392;2023-11-19T15:31:18;33.67;;;24.27;;
69951;SDS011;60406;48.408;13.392;2023-11-19T15:36:19;16.63;;;13.80;;
69951;SDS011;60406;48.408;13.392;2023-11-19T15:41:20;15.95;;;12.65;;
69951;SDS011;60406;48.408;13.392;2023-11-19T15:46:21;23.80;;;18.02;;
69951;SDS011;60406;48.408;13.392;2023-11-19T15:51:21;22.45;;;18.13;;
69951;SDS011;60406;48.408;13.392;2023-11-19T15:56:22;25.92;;;18.25;;
69951;SDS011;60406;48.408;13.392;2023-11-19T16:01:23;29.45;;;20.63;;
69951;SDS011;60406;48.408;13.392;2023-11-19T16:06:24;32.55;;;20.05;;
69951;SDS011;60406;48.408;13.392;2023-11-19T16:11:25;27.20;;;17.50;;
69951;SDS011;60406;48.408;13.392;2023-11-19T16:16:26;27.15;;;18.48;;
69951;SDS011;60406;48.408;13.392;2023-11-19T16:21:27;158.32;;;98.47;;
69951;SDS011;60406;48.408;13.392;2023-11-19T16:26:28;67.50;;;49.90;;
69951;SDS011;60406;48.408;13.392;2023-11-19T16:31:29;65.82;;;48.05;;
69951;SDS011;60406;48.408;13.392;2023-11-19T16:36:30;58.00;;;43.08;;
69951;SDS011;60406;48.408;13.392;2023-11-19T16:41:31;64.70;;;46.35;;
69951;SDS011;60406;48.408;13.392;2023-11-19T16:46:32;63.40;;;47.00;;
69951;SDS011;60406;48.408;13.392;2023-11-19T16:51:33;51.53;;;40.25;;
69951;SDS011;60406;48.408;13.392;2023-11-19T16:56:34;68.40;;;42.55;;
69951;SDS011;60406;48.408;13.392;2023-11-19T17:01:35;177.45;;;42.92;;
69951;SDS011;60406;48.408;13.392;2023-11-19T17:06:37;223.40;;;31.65;;
69951;SDS011;60406;48.408;13.392;2023-11-19T17:11:39;334.40;;;35.58;;
69951;SDS011;60406;48.408;13.392;2023-11-19T17:16:40;374.85;;;45.13;;
69951;SDS011;60406;48.408;13.392;2023-11-19T17:21:41;397.77;;;46.35;;
69951;SDS011;60406;48.408;13.392;2023-11-19T17:26:42;345.95;;;46.05;;
69951;SDS011;60406;48.408;13.392;2023-11-19T17:31:43;114.78;;;25.92;;
69951;SDS011;60406;48.408;13.392;2023-11-19T17:36:44;90.28;;;33.38;;
69951;SDS011;60406;48.408;13.392;2023-11-19T17:41:45;28.70;;;21.95;;
69951;SDS011;60406;48.408;13.392;2023-11-19T17:46:45;38.22;;;26.30;;
69951;SDS011;60406;48.408;13.392;2023-11-19T17:51:46;56.35;;;35.25;;
69951;SDS011;60406;48.408;13.392;2023-11-19T17:56:47;31.20;;;22.88;;
69951;SDS011;60406;48.408;13.392;2023-11-19T18:01:48;33.15;;;25.20;;
69951;SDS011;60406;48.408;13.392;2023-11-19T18:06:49;33.10;;;23.05;;
69951;SDS011;60406;48.408;13.392;2023-11-19T18:11:50;23.52;;;19.15;;
69951;SDS011;60406;48.408;13.392;2023-11-19T18:16:51;33.13;;;24.13;;
69951;SDS011;60406;48.408;13.392;2023-11-19T18:21:52;32.97;;;24.63;;
69951;SDS011;60406;48.408;13.392;2023-11-19T18:26:53;24.27;;;18.52;;
69951;SDS011;60406;48.408;13.392;2023-11-19T18:31:53;24.00;;;18.92;;
69951;SDS011;60406;48.408;13.392;2023-11-19T18:36:54;29.40;;;22.98;;
69951;SDS011;60406;48.408;13.392;2023-11-19T18:41:55;25.80;;;21.50;;
69951;SDS011;60406;48.408;13.392;2023-11-19T18:46:56;26.60;;;19.73;;
69951;SDS011;60406;48.408;13.392;2023-11-19T18:51:57;33.45;;;23.48;;
69951;SDS011;60406;48.408;13.392;2023-11-19T18:56:58;27.33;;;18.60;;
69951;SDS011;60406;48.408;13.392;2023-11-19T19:01:59;23.98;;;17.50;;
69951;SDS011;60406;48.408;13.392;2023-11-19T19:06:59;30.40;;;20.95;;
69951;SDS011;60406;48.408;13.392;2023-11-19T19:12:01;30.83;;;23.90;;
69951;SDS011;60406;48.408;13.392;2023-11-19T19:17:02;33.17;;;24.25;;
69951;SDS011;60406;48.408;13.392;2023-11-19T19:22:03;30.25;;;23.77;;
69951;SDS011;60406;48.408;13.392;2023-11-19T19:27:04;39.13;;;29.08;;
69951;SDS011;60406;48.408;13.392;2023-11-19T19:32:05;35.85;;;29.48;;
69951;SDS011;60406;48.408;13.392;2023-11-19T19:37:06;41.53;;;30.45;;
69951;SDS011;60406;48.408;13.392;2023-11-19T19:42:07;31.13;;;26.60;;
69951;SDS011;60406;48.408;13.392;2023-11-19T19:47:08;22.77;;;18.92;;
69951;SDS011;60406;48.408;13.392;2023-11-19T19:52:09;23.42;;;19.33;;
69951;SDS011;60406;48.408;13.392;2023-11-19T19:57:10;20.33;;;17.67;;
69951;SDS011;60406;48.408;13.392;2023-11-19T20:02:11;24.08;;;17.80;;
69951;SDS011;60406;48.408;13.392;2023-11-19T20:07:12;26.30;;;18.90;;
69951;SDS011;60406;48.408;13.392;2023-11-19T20:12:13;27.45;;;19.55;;
69951;SDS011;60406;48.408;13.392;2023-11-19T20:17:13;28.52;;;20.02;;
69951;SDS011;60406;48.408;13.392;2023-11-19T20:22:14;27.50;;;20.30;;
69951;SDS011;60406;48.408;13.392;2023-11-19T20:27:15;30.10;;;20.08;;
69951;SDS011;60406;48.408;13.392;2023-11-19T20:32:16;27.30;;;19.73;;
69951;SDS011;60406;48.408;13.392;2023-11-19T20:37:17;23.80;;;16.10;;
69951;SDS011;60406;48.408;13.392;2023-11-19T20:42:18;27.95;;;16.95;;
69951;SDS011;60406;48.408;13.392;2023-11-19T20:47:19;24.55;;;16.33;;
69951;SDS011;60406;48.408;13.392;2023-11-19T20:52:20;27.50;;;15.90;;
69951;SDS011;60406;48.408;13.392;2023-11-19T20:57:20;20.13;;;13.60;;
69951;SDS011;60406;48.408;13.392;2023-11-19T21:02:21;18.88;;;13.50;;
69951;SDS011;60406;48.408;13.392;2023-11-19T21:07:22;16.38;;;12.57;;
69951;SDS011;60406;48.408;13.392;2023-11-19T21:12:23;13.40;;;11.05;;
69951;SDS011;60406;48.408;13.392;2023-11-19T21:17:24;16.65;;;12.68;;
69951;SDS011;60406;48.408;13.392;2023-11-19T21:22:25;20.42;;;13.40;;
69951;SDS011;60406;48.408;13.392;2023-11-19T21:27:26;18.35;;;13.25;;
69951;SDS011;60406;48.408;13.392;2023-11-19T21:32:26;16.08;;;11.65;;
69951;SDS011;60406;48.408;13.392;2023-11-19T21:37:27;17.85;;;10.90;;
69951;SDS011;60406;48.408;13.392;2023-11-19T21:42:28;13.32;;;9.82;;
69951;SDS011;60406;48.408;13.392;2023-11-19T21:47:29;12.00;;;8.70;;
69951;SDS011;60406;48.408;13.392;2023-11-19T21:52:30;11.63;;;10.07;;
69951;SDS011;60406;48.408;13.392;2023-11-19T21:57:31;6.90;;;4.63;;
69951;SDS011;60406;48.408;13.392;2023-11-19T22:02:32;3.83;;;3.42;;
69951;SDS011;60406;48.408;13.392;2023-11-19T22:07:32;3.50;;;1.25;;
69951;SDS011;60406;48.408;13.392;2023-11-19T22:12:33;4.22;;;0.75;;
69951;SDS011;60406;48.408;13.392;2023-11-19T22:17:34;1.45;;;1.10;;
69951;SDS011;60406;48.408;13.392;2023-11-19T22:22:35;4.88;;;1.25;;
69951;SDS011;60406;48.408;13.392;2023-11-19T22:27:36;6.68;;;1.65;;
69951;SDS011;60406;48.408;13.392;2023-11-19T22:32:37;5.97;;;2.47;;
69951;SDS011;60406;48.408;13.392;2023-11-19T22:37:38;6.22;;;2.65;;
69951;SDS011;60406;48.408;13.392;2023-11-19T22:42:39;6.05;;;1.85;;
69951;SDS011;60406;48.408;13.392;2023-11-19T22:47:40;4.60;;;1.40;;
69951;SDS011;60406;48.408;13.392;2023-11-19T22:52:41;7.07;;;1.70;;
69951;SDS011;60406;48.408;13.392;2023-11-19T22:57:42;3.25;;;1.38;;
69951;SDS011;60406;48.408;13.392;2023-11-19T23:02:43;4.30;;;1.48;;
69951;SDS011;60406;48.408;13.392;2023-11-19T23:07:43;6.60;;;1.67;;
69951;SDS011;60406;48.408;13.392;2023-11-19T23:12:44;4.97;;;1.30;;
69951;SDS011;60406;48.408;13.392;2023-11-19T23:17:45;7.40;;;1.45;;
69951;SDS011;60406;48.408;13.392;2023-11-19T23:22:46;8.60;;;1.80;;
69951;SDS011;60406;48.408;13.392;2023-11-19T23:27:47;15.60;;;2.78;;
69951;SDS011;60406;48.408;13.392;2023-11-19T23:32:48;5.38;;;1.50;;
69951;SDS011;60406;48.408;13.392;2023-11-19T23:37:49;7.65;;;2.45;;
69951;SDS011;60406;48.408;13.392;2023-11-19T23:42:50;7.25;;;1.52;;
69951;SDS011;60406;48.408;13.392;2023-11-19T23:47:51;7.32;;;1.95;;
69951;SDS011;60406;48.408;13.392;2023-11-19T23:52:52;9.18;;;2.22;;
69951;SDS011;60406;48.408;13.392;2023-11-19T23:57:52;14.82;;;3.60;;
